createdAt,value
2023-01-29T00:00:16.106Z,99163.03
2023-01-29T00:02:44.941Z,99183.03
2023-01-29T00:05:27.002Z,99175.75
2023-01-29T00:07:56.107Z,99176.78
2023-01-29T00:10:24.666Z,99167.03
2023-01-29T00:12:54.890Z,99169.13
2023-01-29T00:15:23.286Z,99169.94
2023-01-29T00:17:51.955Z,99177.81
2023-01-29T00:20:20.656Z,99158.75
2023-01-29T00:22:49.751Z,99161.41
2023-01-29T00:25:18.673Z,99158.13
2023-01-29T00:27:47.596Z,99163.16
2023-01-29T00:30:21.136Z,99164.50
2023-01-29T00:32:50.661Z,99159.19
2023-01-29T00:35:19.449Z,99159.88
2023-01-29T00:37:49.574Z,99146.47
2023-01-29T00:40:19.882Z,99139.78
2023-01-29T00:43:07.349Z,99141.03
2023-01-29T00:45:38.728Z,99147.91
2023-01-29T00:48:08.204Z,99160.47
2023-01-29T00:50:36.529Z,99137.25
2023-01-29T00:53:05.124Z,99146.59
2023-01-29T00:55:34.031Z,99142.50
2023-01-29T00:58:02.362Z,99149.59
2023-01-29T01:00:30.737Z,99151.38
2023-01-29T01:03:08.591Z,99140.91
2023-01-29T01:05:37.289Z,99143.38
2023-01-29T01:08:26.953Z,99135.59
2023-01-29T01:11:00.483Z,99140.13
2023-01-29T01:13:29.355Z,99140.25
2023-01-29T01:15:57.681Z,99142.09
2023-01-29T01:18:27.396Z,99149.59
2023-01-29T01:20:59.776Z,99150.66
2023-01-29T01:23:28.259Z,99150.13
2023-01-29T01:25:56.802Z,99152.84
2023-01-29T01:28:25.092Z,99144.97
2023-01-29T01:30:53.347Z,99148.53
2023-01-29T01:33:21.580Z,99145.56
2023-01-29T01:35:51.258Z,99140.66
2023-01-29T01:38:19.613Z,99138.91
2023-01-29T01:40:48.336Z,99140.66
2023-01-29T01:43:16.795Z,99139.94
2023-01-29T01:45:46.835Z,99143.34
2023-01-29T01:48:18.912Z,99150.59
2023-01-29T01:50:51.252Z,99155.09
2023-01-29T01:53:26.006Z,99138.72
2023-01-29T01:55:58.958Z,99149.66
2023-01-29T01:58:29.659Z,99144.94
2023-01-29T02:00:58.588Z,99149.25
2023-01-29T02:03:47.582Z,99135.75
2023-01-29T02:06:33.347Z,99148.09
2023-01-29T02:09:27.610Z,99145.97
2023-01-29T02:11:56.536Z,99151.00
2023-01-29T02:14:25.450Z,99147.72
2023-01-29T02:16:53.903Z,99133.22
2023-01-29T02:19:29.841Z,99152.16
2023-01-29T02:22:25.990Z,99148.59
2023-01-29T02:25:38.550Z,99145.69
2023-01-29T02:28:28.968Z,99146.25
2023-01-29T02:31:05.226Z,99149.63
2023-01-29T02:33:44.271Z,99141.91
2023-01-29T02:36:27.379Z,99138.38
2023-01-29T02:39:01.798Z,99137.97
2023-01-29T02:41:37.304Z,99135.50
2023-01-29T02:44:18.236Z,99129.56
2023-01-29T02:46:52.431Z,99133.38
2023-01-29T02:49:26.210Z,99134.88
2023-01-29T02:52:00.923Z,99135.69
2023-01-29T02:54:39.679Z,99132.22
2023-01-29T02:57:16.474Z,99133.22
2023-01-29T02:59:52.982Z,99144.19
2023-01-29T03:02:31.626Z,99132.28
2023-01-29T03:05:03.619Z,99130.22
2023-01-29T03:07:45.103Z,99141.81
2023-01-29T03:10:19.032Z,99141.06
2023-01-29T03:12:55.887Z,99135.53
2023-01-29T03:15:31.289Z,99147.03
2023-01-29T03:18:03.774Z,99138.25
2023-01-29T03:20:36.960Z,99149.75
2023-01-29T03:23:12.711Z,99149.59
2023-01-29T03:26:01.229Z,99158.50
2023-01-29T03:28:49.090Z,99158.56
2023-01-29T03:31:38.310Z,99166.91
2023-01-29T03:34:18.386Z,99161.94
2023-01-29T03:36:56.208Z,99136.63
2023-01-29T03:39:28.544Z,99141.94
2023-01-29T03:42:10.405Z,99152.16
2023-01-29T03:44:48.942Z,99158.75
2023-01-29T03:47:24.410Z,99156.81
2023-01-29T03:50:01.051Z,99168.31
2023-01-29T03:52:38.178Z,99160.19
2023-01-29T03:55:16.424Z,99155.25
2023-01-29T03:57:51.827Z,99163.97
2023-01-29T04:00:26.547Z,99163.75
2023-01-29T04:03:04.210Z,99143.28
2023-01-29T04:05:39.641Z,99163.47
2023-01-29T04:08:12.695Z,99162.69
2023-01-29T04:10:43.674Z,99165.72
2023-01-29T04:13:14.201Z,99170.72
2023-01-29T04:15:47.962Z,99175.19
2023-01-29T04:18:17.777Z,99176.78
2023-01-29T04:20:46.316Z,99181.91
2023-01-29T04:23:23.245Z,99173.91
2023-01-29T04:26:06.890Z,99184.44
2023-01-29T04:28:52.486Z,99178.22
2023-01-29T04:31:24.249Z,99180.75
2023-01-29T04:34:05.836Z,99164.56
2023-01-29T04:36:39.611Z,99153.94
2023-01-29T04:39:12.847Z,99157.28
2023-01-29T04:41:54.258Z,99150.72
2023-01-29T04:44:29.872Z,99147.97
2023-01-29T04:47:07.217Z,99160.50
2023-01-29T04:49:46.186Z,99164.59
2023-01-29T04:52:21.329Z,99176.47
2023-01-29T04:55:01.506Z,99170.84
2023-01-29T04:57:36.721Z,99171.81
2023-01-29T05:00:15.333Z,99172.34
2023-01-29T05:02:46.206Z,99158.66
2023-01-29T05:05:18.192Z,99149.69
2023-01-29T05:07:48.729Z,99155.72
2023-01-29T05:10:21.651Z,99141.66
2023-01-29T05:12:55.150Z,99133.06
2023-01-29T05:15:28.326Z,99145.38
2023-01-29T05:18:01.943Z,99150.75
2023-01-29T05:20:36.982Z,99150.78
2023-01-29T05:23:05.242Z,99148.69
2023-01-29T05:25:35.474Z,99149.44
2023-01-29T05:28:05.998Z,99158.09
2023-01-29T05:30:35.840Z,99157.63
2023-01-29T05:33:15.430Z,99152.13
2023-01-29T05:35:46.115Z,99141.41
2023-01-29T05:38:18.164Z,99129.03
2023-01-29T05:40:47.222Z,99126.19
2023-01-29T05:43:17.616Z,99121.03
2023-01-29T05:45:54.167Z,99118.75
2023-01-29T05:48:22.602Z,99112.16
2023-01-29T05:50:52.497Z,99113.09
2023-01-29T05:53:20.868Z,99095.94
2023-01-29T05:55:49.309Z,99097.78
2023-01-29T05:58:19.722Z,99104.47
2023-01-29T06:00:47.938Z,99096.72
2023-01-29T06:03:16.894Z,99095.72
2023-01-29T06:05:45.005Z,99113.56
2023-01-29T06:08:14.420Z,99111.44
2023-01-29T06:10:47.127Z,99106.19
2023-01-29T06:13:17.336Z,99102.13
2023-01-29T06:15:45.343Z,99102.00
2023-01-29T06:18:13.410Z,99104.91
2023-01-29T06:20:41.479Z,99108.28
2023-01-29T06:23:09.415Z,99106.53
2023-01-29T06:25:38.798Z,99107.03
2023-01-29T06:28:14.298Z,99090.56
2023-01-29T06:30:44.011Z,99111.09
2023-01-29T06:33:11.912Z,99102.22
2023-01-29T06:35:40.032Z,99132.44
2023-01-29T06:38:08.034Z,99098.34
2023-01-29T06:40:36.201Z,99106.59
2023-01-29T06:43:05.607Z,99097.22
2023-01-29T06:45:33.696Z,99119.03
2023-01-29T06:48:01.797Z,99120.44
2023-01-29T06:50:32.327Z,99127.13
2023-01-29T06:53:02.496Z,99119.59
2023-01-29T06:55:30.547Z,99122.97
2023-01-29T06:57:58.361Z,99129.50
2023-01-29T07:00:28.401Z,99147.84
2023-01-29T07:03:02.290Z,99153.25
2023-01-29T07:05:30.514Z,99139.84
2023-01-29T07:07:58.843Z,99142.09
2023-01-29T07:10:29.295Z,99144.03
2023-01-29T07:12:57.870Z,99150.47
2023-01-29T07:15:29.237Z,99156.81
2023-01-29T07:17:58.687Z,99152.56
2023-01-29T07:20:27.671Z,99161.91
2023-01-29T07:22:55.951Z,99161.06
2023-01-29T07:25:25.210Z,99164.75
2023-01-29T07:27:53.174Z,99160.00
2023-01-29T07:30:21.453Z,99161.56
2023-01-29T07:33:02.533Z,99160.06
2023-01-29T07:35:31.069Z,99148.59
2023-01-29T07:38:00.626Z,99148.84
2023-01-29T07:40:31.885Z,99152.72
2023-01-29T07:43:00.775Z,99154.28
2023-01-29T07:45:31.852Z,99148.28
2023-01-29T07:48:01.345Z,99147.59
2023-01-29T07:50:30.044Z,99148.91
2023-01-29T07:52:58.806Z,99154.28
2023-01-29T07:55:35.944Z,99163.03
2023-01-29T07:58:05.683Z,99158.06
2023-01-29T08:00:34.371Z,99160.50
2023-01-29T08:03:08.620Z,99157.13
2023-01-29T08:05:38.575Z,99164.38
2023-01-29T08:08:07.916Z,99182.03
2023-01-29T08:10:40.211Z,99180.25
2023-01-29T08:13:09.642Z,99178.41
2023-01-29T08:15:39.478Z,99190.34
2023-01-29T08:18:13.011Z,99191.88
2023-01-29T08:20:41.527Z,99190.16
2023-01-29T08:23:17.634Z,99198.31
2023-01-29T08:25:45.880Z,99196.84
2023-01-29T08:28:14.280Z,99194.06
2023-01-29T08:30:44.208Z,99206.25
2023-01-29T08:33:16.215Z,99208.47
2023-01-29T08:35:44.812Z,99201.75
2023-01-29T08:38:13.517Z,99194.19
2023-01-29T08:40:44.256Z,99188.94
2023-01-29T08:43:13.950Z,99192.09
2023-01-29T08:45:44.360Z,99191.88
2023-01-29T08:48:15.649Z,99188.44
2023-01-29T08:50:43.863Z,99200.53
2023-01-29T08:53:15.165Z,99202.28
2023-01-29T08:55:43.432Z,99197.06
2023-01-29T08:58:14.003Z,99207.16
2023-01-29T09:00:44.786Z,99199.63
2023-01-29T09:03:14.675Z,99188.44
2023-01-29T09:05:43.155Z,99186.41
2023-01-29T09:08:12.021Z,99183.66
2023-01-29T09:10:40.289Z,99186.03
2023-01-29T09:13:11.740Z,99183.16
2023-01-29T09:15:40.556Z,99187.19
2023-01-29T09:18:08.707Z,99178.53
2023-01-29T09:20:41.009Z,99181.25
2023-01-29T09:23:11.245Z,99180.66
2023-01-29T09:25:39.812Z,99183.63
2023-01-29T09:28:07.920Z,99190.09
2023-01-29T09:30:38.335Z,99188.50
2023-01-29T09:33:06.828Z,99183.38
2023-01-29T09:35:37.965Z,99182.06
2023-01-29T09:38:07.548Z,99170.94
2023-01-29T09:40:48.115Z,99166.97
2023-01-29T09:43:20.091Z,99167.88
2023-01-29T09:45:57.013Z,99164.19
2023-01-29T09:48:33.419Z,99165.31
2023-01-29T09:51:16.169Z,99158.09
2023-01-29T09:53:49.766Z,99158.00
2023-01-29T09:56:21.432Z,99153.38
2023-01-29T09:58:49.690Z,99156.75
2023-01-29T10:01:24.488Z,99161.47
2023-01-29T10:04:15.852Z,99153.00
2023-01-29T10:07:00.216Z,99137.84
2023-01-29T10:10:03.851Z,99125.28
2023-01-29T10:12:52.350Z,99134.84
2023-01-29T10:15:41.708Z,99139.28
2023-01-29T10:18:30.165Z,99158.25
2023-01-29T10:21:15.505Z,99156.91
2023-01-29T10:23:49.002Z,99162.88
2023-01-29T10:26:22.299Z,99157.25
2023-01-29T10:28:57.593Z,99145.03
2023-01-29T10:31:32.978Z,99144.50
2023-01-29T10:34:04.935Z,99136.41
2023-01-29T10:36:38.429Z,99133.31
2023-01-29T10:39:06.552Z,99158.19
2023-01-29T10:41:59.427Z,99168.06
2023-01-29T10:44:46.038Z,99167.22
2023-01-29T10:47:52.835Z,99178.16
2023-01-29T10:50:34.458Z,99175.66
2023-01-29T10:53:41.761Z,99175.06
2023-01-29T10:56:23.898Z,99167.44
2023-01-29T10:59:01.253Z,99136.91
2023-01-29T11:01:31.513Z,99148.34
2023-01-29T11:04:03.429Z,99144.00
2023-01-29T11:06:33.962Z,99120.06
2023-01-29T11:09:09.935Z,99118.78
2023-01-29T11:11:45.296Z,99111.88
2023-01-29T11:14:20.623Z,99106.94
2023-01-29T11:16:50.501Z,99109.28
2023-01-29T11:19:18.843Z,99110.69
2023-01-29T11:21:57.925Z,99096.75
2023-01-29T11:24:26.893Z,99068.59
2023-01-29T11:26:58.802Z,99081.72
2023-01-29T11:29:42.382Z,99063.28
2023-01-29T11:32:16.216Z,99067.50
2023-01-29T11:35:07.112Z,99068.72
2023-01-29T11:37:39.510Z,99052.91
2023-01-29T11:40:36.860Z,99044.31
2023-01-29T11:43:32.338Z,99039.03
2023-01-29T11:46:05.684Z,99028.84
2023-01-29T11:48:41.887Z,99040.72
2023-01-29T11:51:13.383Z,99032.13
2023-01-29T11:53:48.350Z,99041.91
2023-01-29T11:56:24.089Z,99030.63
2023-01-29T11:58:56.112Z,99017.47
2023-01-29T12:01:33.732Z,99032.84
2023-01-29T12:04:15.179Z,99029.56
2023-01-29T12:06:49.131Z,99034.94
2023-01-29T12:09:19.697Z,99026.53
2023-01-29T12:11:48.102Z,99010.75
2023-01-29T12:14:29.206Z,99007.75
2023-01-29T12:17:07.108Z,98996.59
2023-01-29T12:19:42.780Z,99004.88
2023-01-29T12:22:19.769Z,98982.19
2023-01-29T12:24:55.602Z,98988.09
2023-01-29T12:27:28.925Z,98980.78
2023-01-29T12:30:09.522Z,98978.69
2023-01-29T12:32:49.959Z,98973.28
2023-01-29T12:35:25.593Z,98976.94
2023-01-29T12:38:01.013Z,98971.06
2023-01-29T12:40:36.135Z,98974.22
2023-01-29T12:43:08.110Z,98978.97
2023-01-29T12:45:39.341Z,98952.03
2023-01-29T12:48:13.359Z,98962.53
2023-01-29T12:50:42.506Z,98948.81
2023-01-29T12:53:28.315Z,98939.22
2023-01-29T12:56:01.339Z,98938.38
2023-01-29T12:58:35.860Z,98928.41
2023-01-29T13:01:14.324Z,98932.28
2023-01-29T13:03:55.981Z,98923.34
2023-01-29T13:06:31.858Z,98936.94
2023-01-29T13:09:04.892Z,98925.78
2023-01-29T13:11:39.615Z,98942.88
2023-01-29T13:14:15.502Z,98937.72
2023-01-29T13:16:47.132Z,98933.59
2023-01-29T13:19:27.626Z,98939.22
2023-01-29T13:21:58.425Z,98941.91
2023-01-29T13:24:30.705Z,98935.25
2023-01-29T13:26:59.145Z,98938.53
2023-01-29T13:29:29.405Z,98928.69
2023-01-29T13:32:00.069Z,98928.63
2023-01-29T13:34:32.827Z,98935.03
2023-01-29T13:37:12.718Z,98925.50
2023-01-29T13:39:47.979Z,98931.84
2023-01-29T13:42:22.601Z,98934.38
2023-01-29T13:44:52.854Z,98916.78
2023-01-29T13:47:29.779Z,98908.78
2023-01-29T13:50:07.667Z,98911.59
2023-01-29T13:52:43.034Z,98914.22
2023-01-29T13:55:31.259Z,98911.00
2023-01-29T13:58:00.499Z,98907.53
2023-01-29T14:00:55.705Z,98908.78
2023-01-29T14:04:05.628Z,98902.81
2023-01-29T14:06:51.762Z,98907.94
2023-01-29T14:09:55.637Z,98919.66
2023-01-29T14:12:52.564Z,98919.78
2023-01-29T14:15:30.634Z,98922.50
2023-01-29T14:18:19.769Z,98914.94
2023-01-29T14:21:05.469Z,98896.25
2023-01-29T14:23:48.584Z,98903.97
2023-01-29T14:26:24.378Z,98896.78
2023-01-29T14:29:25.639Z,98888.56
2023-01-29T14:32:01.518Z,98887.81
2023-01-29T14:34:33.431Z,98883.88
2023-01-29T14:37:12.683Z,98881.47
2023-01-29T14:39:50.395Z,98885.53
2023-01-29T14:42:24.621Z,98884.53
2023-01-29T14:45:23.560Z,98887.78
2023-01-29T14:48:03.644Z,98886.78
2023-01-29T14:50:50.857Z,98878.13
2023-01-29T14:53:27.661Z,98881.28
2023-01-29T14:56:01.851Z,98876.59
2023-01-29T14:58:39.962Z,98880.19
2023-01-29T15:01:20.187Z,98880.19
2023-01-29T15:03:52.223Z,98885.50
2023-01-29T15:06:29.469Z,98880.41
2023-01-29T15:09:13.037Z,98876.47
2023-01-29T15:11:54.720Z,98874.31
2023-01-29T15:14:31.411Z,98870.63
2023-01-29T15:17:09.048Z,98867.13
2023-01-29T15:19:40.627Z,98872.06
2023-01-29T15:22:15.213Z,98875.19
2023-01-29T15:24:45.156Z,98871.66
2023-01-29T15:27:20.105Z,98866.66
2023-01-29T15:29:59.431Z,98858.09
2023-01-29T15:32:30.814Z,98858.81
2023-01-29T15:35:00.972Z,98864.50
2023-01-29T15:37:32.261Z,98859.38
2023-01-29T15:40:01.971Z,98851.69
2023-01-29T15:42:45.096Z,98852.50
2023-01-29T15:45:31.234Z,98849.06
2023-01-29T15:48:06.264Z,98848.84
2023-01-29T15:50:38.728Z,98855.34
2023-01-29T15:53:11.476Z,98854.34
2023-01-29T15:55:41.050Z,98840.66
2023-01-29T15:58:17.064Z,98839.69
2023-01-29T16:00:50.480Z,98861.81
2023-01-29T16:03:23.874Z,98861.69
2023-01-29T16:05:53.528Z,98858.09
2023-01-29T16:08:23.058Z,98854.47
2023-01-29T16:10:55.002Z,98853.44
2023-01-29T16:13:26.104Z,98850.06
2023-01-29T16:15:59.457Z,98859.19
2023-01-29T16:18:36.389Z,98848.88
2023-01-29T16:21:13.403Z,98844.47
2023-01-29T16:23:45.318Z,98847.31
2023-01-29T16:26:19.195Z,98849.59
2023-01-29T16:28:48.796Z,98838.16
2023-01-29T16:31:23.989Z,98842.25
2023-01-29T16:33:53.286Z,98848.63
2023-01-29T16:36:24.846Z,98842.75
2023-01-29T16:39:00.516Z,98846.66
2023-01-29T16:41:38.365Z,98846.31
2023-01-29T16:44:34.311Z,98844.97
2023-01-29T16:47:30.828Z,98838.00
2023-01-29T16:50:00.965Z,98840.31
2023-01-29T16:52:33.172Z,98837.47
2023-01-29T16:55:21.446Z,98839.91
2023-01-29T16:57:55.404Z,98829.03
2023-01-29T17:00:28.897Z,98838.03
2023-01-29T17:03:02.615Z,98843.69
2023-01-29T17:05:33.291Z,98843.28
2023-01-29T17:08:02.224Z,98838.25
2023-01-29T17:10:32.679Z,98846.09
2023-01-29T17:13:05.695Z,98834.31
2023-01-29T17:15:50.648Z,98841.06
2023-01-29T17:18:21.714Z,98834.63
2023-01-29T17:20:50.625Z,98820.41
2023-01-29T17:23:19.109Z,98836.50
2023-01-29T17:25:48.039Z,98831.31
2023-01-29T17:28:19.812Z,98830.34
2023-01-29T17:31:05.201Z,98828.63
2023-01-29T17:33:34.311Z,98826.97
2023-01-29T17:36:05.733Z,98817.75
2023-01-29T17:38:36.282Z,98820.31
2023-01-29T17:41:08.653Z,98823.75
2023-01-29T17:43:36.719Z,98815.25
2023-01-29T17:46:13.192Z,98816.88
2023-01-29T17:48:41.628Z,98815.50
2023-01-29T17:51:13.183Z,98824.56
2023-01-29T17:53:49.261Z,98823.47
2023-01-29T17:56:27.554Z,98816.66
2023-01-29T17:58:56.002Z,98823.47
2023-01-29T18:01:25.685Z,98820.00
2023-01-29T18:03:53.977Z,98832.34
2023-01-29T18:06:28.910Z,98828.44
2023-01-29T18:08:59.783Z,98815.22
2023-01-29T18:11:30.178Z,98837.19
2023-01-29T18:13:59.479Z,98837.03
2023-01-29T18:16:37.544Z,98834.38
2023-01-29T18:19:18.050Z,98832.47
2023-01-29T18:21:47.962Z,98839.28
2023-01-29T18:24:16.474Z,98834.16
2023-01-29T18:26:44.850Z,98831.69
2023-01-29T18:29:13.556Z,98838.28
2023-01-29T18:31:43.487Z,98843.97
2023-01-29T18:34:11.831Z,98834.72
2023-01-29T18:36:40.399Z,98837.19
2023-01-29T18:39:09.800Z,98838.59
2023-01-29T18:41:41.437Z,98847.69
2023-01-29T18:44:11.854Z,98833.19
2023-01-29T18:46:42.648Z,98844.06
2023-01-29T18:49:12.693Z,98843.22
2023-01-29T18:51:41.137Z,98844.63
2023-01-29T18:54:12.736Z,98845.53
2023-01-29T18:57:07.717Z,98848.78
2023-01-29T18:59:31.664Z,98852.97
2023-01-29T19:02:00.474Z,98852.97
2023-01-29T19:04:39.120Z,98855.22
2023-01-29T19:07:07.570Z,98858.53
2023-01-29T19:09:36.249Z,98849.28
2023-01-29T19:12:05.378Z,98853.34
2023-01-29T19:14:33.952Z,98864.13
2023-01-29T19:17:04.656Z,98855.19
2023-01-29T19:19:33.479Z,98854.06
2023-01-29T19:22:06.212Z,98847.94
2023-01-29T19:24:39.197Z,98855.38
2023-01-29T19:27:07.576Z,98848.53
2023-01-29T19:29:35.936Z,98842.47
2023-01-29T19:32:04.707Z,98838.22
2023-01-29T19:34:33.147Z,98848.13
2023-01-29T19:37:04.966Z,98842.22
2023-01-29T19:39:34.248Z,98843.78
2023-01-29T19:42:09.888Z,98840.38
2023-01-29T19:44:41.143Z,98836.88
2023-01-29T19:47:09.171Z,98829.84
2023-01-29T19:49:37.298Z,98832.56
2023-01-29T19:52:15.030Z,98824.09
2023-01-29T19:54:46.245Z,98825.44
2023-01-29T19:57:14.701Z,98820.59
2023-01-29T19:59:45.650Z,98825.69
2023-01-29T20:02:16.060Z,98816.38
2023-01-29T20:04:44.391Z,98814.56
2023-01-29T20:07:21.440Z,98815.75
2023-01-29T20:09:51.875Z,98803.50
2023-01-29T20:12:23.730Z,98805.31
2023-01-29T20:14:52.661Z,98803.50
2023-01-29T20:17:23.172Z,98804.59
2023-01-29T20:19:52.969Z,98799.50
2023-01-29T20:22:24.169Z,98794.47
2023-01-29T20:24:52.136Z,98800.31
2023-01-29T20:27:20.242Z,98789.56
2023-01-29T20:29:48.226Z,98787.72
2023-01-29T20:32:16.371Z,98784.28
2023-01-29T20:34:44.627Z,98781.38
2023-01-29T20:37:15.490Z,98786.66
2023-01-29T20:39:44.943Z,98780.38
2023-01-29T20:42:14.001Z,98780.66
2023-01-29T20:44:44.127Z,98788.00
2023-01-29T20:47:12.278Z,98787.38
2023-01-29T20:49:40.450Z,98793.44
2023-01-29T20:52:12.523Z,98779.53
2023-01-29T20:54:40.796Z,98776.91
2023-01-29T20:57:15.149Z,98776.63
2023-01-29T20:59:45.109Z,98778.97
2023-01-29T21:02:13.063Z,98774.25
2023-01-29T21:04:43.068Z,98768.13
2023-01-29T21:07:12.522Z,98769.78
2023-01-29T21:09:40.696Z,98769.78
2023-01-29T21:12:10.324Z,98772.22
2023-01-29T21:14:38.523Z,98772.16
2023-01-29T21:17:06.725Z,98780.53
2023-01-29T21:19:34.853Z,98782.28
2023-01-29T21:22:02.742Z,98776.28
2023-01-29T21:24:30.796Z,98775.47
2023-01-29T21:26:58.994Z,98764.44
2023-01-29T21:29:28.882Z,98752.19
2023-01-29T21:31:57.064Z,98774.25
2023-01-29T21:34:27.236Z,98780.09
2023-01-29T21:36:55.342Z,98782.75
2023-01-29T21:39:24.795Z,98776.78
2023-01-29T21:42:11.067Z,98781.03
2023-01-29T21:44:40.687Z,98792.75
2023-01-29T21:47:13.437Z,98801.78
2023-01-29T21:49:45.570Z,98796.69
2023-01-29T21:52:16.240Z,98798.63
2023-01-29T21:54:46.938Z,98798.41
2023-01-29T21:57:16.013Z,98794.00
2023-01-29T21:59:47.371Z,98795.97
2023-01-29T22:02:19.408Z,98784.22
2023-01-29T22:04:47.750Z,98788.97
2023-01-29T22:07:15.931Z,98791.34
2023-01-29T22:09:43.891Z,98787.59
2023-01-29T22:12:15.018Z,98784.22
2023-01-29T22:14:43.454Z,98778.50
2023-01-29T22:17:13.684Z,98775.53
2023-01-29T22:19:41.774Z,98762.59
2023-01-29T22:22:10.431Z,98756.81
2023-01-29T22:24:38.495Z,98756.69
2023-01-29T22:27:09.420Z,98753.13
2023-01-29T22:29:37.686Z,98739.03
2023-01-29T22:32:06.240Z,98743.09
2023-01-29T22:34:38.260Z,98725.09
2023-01-29T22:37:06.475Z,98731.56
2023-01-29T22:39:34.643Z,98702.22
2023-01-29T22:42:02.866Z,98704.59
2023-01-29T22:44:33.637Z,98696.03
2023-01-29T22:47:02.119Z,98687.56
2023-01-29T22:49:31.443Z,98683.84
2023-01-29T22:52:12.103Z,98669.31
2023-01-29T22:54:41.088Z,98635.06
2023-01-29T22:57:11.307Z,98645.97
2023-01-29T22:59:40.823Z,98636.09
2023-01-29T23:02:09.521Z,98632.94
2023-01-29T23:04:38.018Z,98626.00
2023-01-29T23:07:07.788Z,98620.31
2023-01-29T23:09:35.959Z,98613.16
2023-01-29T23:12:04.208Z,98604.81
2023-01-29T23:14:32.233Z,98613.06
2023-01-29T23:17:00.434Z,98618.22
2023-01-29T23:19:30.319Z,98612.34
2023-01-29T23:21:58.351Z,98615.78
2023-01-29T23:24:27.645Z,98614.81
2023-01-29T23:27:13.908Z,98613.31
2023-01-29T23:29:45.539Z,98611.78
2023-01-29T23:32:15.502Z,98604.38
2023-01-29T23:34:43.362Z,98590.88
2023-01-29T23:37:11.673Z,98599.31
2023-01-29T23:39:41.170Z,98588.88
2023-01-29T23:42:09.344Z,98590.59
2023-01-29T23:44:41.345Z,98587.97
2023-01-29T23:47:09.752Z,98576.94
2023-01-29T23:49:38.138Z,98575.22
2023-01-29T23:52:06.653Z,98574.25
2023-01-29T23:54:36.985Z,98564.94
2023-01-29T23:57:06.694Z,98567.44
2023-01-29T23:59:35.116Z,98570.09
